Time;durP1;ratioP1;P1;durP2;ratioP2;P2;SDS_P1;SDS_P2;PMS_P1;PMS_P2;Temp;Humidity;BMP_temperature;BMP_pressure;BME280_temperature;BME280_humidity;BME280_pressure;Samples;Min_cycle;Max_cycle;Signal;HPM_P1;HPM_P2
2021/04/18 00:02:22;;;;;;;34.45;17.05;;;;;;;4.89;91.09;98960.93;239425;1199;24749;-75
2021/04/18 00:07:25;;;;;;;35.70;17.23;;;;;;;4.94;91.11;98955.70;239508;1199;23236;-75
2021/04/18 00:12:27;;;;;;;35.50;17.50;;;;;;;4.94;90.98;98956.48;239205;1196;23195;-75
2021/04/18 00:17:30;;;;;;;32.30;17.00;;;;;;;4.93;90.49;98951.43;239516;1196;23112;-75
2021/04/18 00:22:33;;;;;;;36.75;17.95;;;;;;;4.95;91.09;98959.94;239556;1199;23108;-75
2021/04/18 00:27:36;;;;;;;35.45;16.40;;;;;;;4.95;90.98;98958.10;239702;1196;23112;-75
2021/04/18 00:32:39;;;;;;;34.37;18.27;;;;;;;5.00;91.03;98959.22;239548;1196;23123;-75
2021/04/18 00:37:43;;;;;;;35.60;18.13;;;;;;;5.02;91.19;98949.93;239580;1195;23118;-75
2021/04/18 00:42:46;;;;;;;32.15;16.35;;;;;;;5.02;91.30;98949.14;239508;1196;23172;-76
2021/04/18 00:47:54;;;;;;;35.37;17.77;;;;;;;4.97;91.11;98941.92;239511;1196;27820;-75
2021/04/18 00:52:58;;;;;;;34.47;17.77;;;;;;;4.97;90.85;98937.41;239556;1199;26121;-75
2021/04/18 00:58:02;;;;;;;36.55;18.55;;;;;;;5.04;91.68;98939.09;239655;1196;23113;-74
2021/04/18 01:03:07;;;;;;;32.87;16.93;;;;;;;5.01;90.76;98943.03;239791;1196;27061;-75
2021/04/18 01:08:13;;;;;;;32.43;16.37;;;;;;;5.02;90.91;98930.55;239664;1196;28251;-76
2021/04/18 01:13:18;;;;;;;34.23;17.20;;;;;;;4.94;90.52;98926.49;239589;1196;23105;-76
2021/04/18 01:18:22;;;;;;;36.63;17.77;;;;;;;4.90;90.59;98922.73;239667;1196;23118;-75
2021/04/18 01:23:25;;;;;;;37.73;18.50;;;;;;;4.92;90.55;98921.41;239674;1194;23134;-75
2021/04/18 01:29:06;;;;;;;40.40;19.10;;;;;;;4.96;90.90;98925.17;239340;1197;23163;-75
2021/04/18 01:34:14;;;;;;;35.67;17.50;;;;;;;4.96;90.98;98924.38;239494;1199;23159;-76
2021/04/18 01:39:18;;;;;;;40.83;18.73;;;;;;;4.99;91.07;98923.09;239562;1198;23218;-74
2021/04/18 01:44:21;;;;;;;42.93;21.03;;;;;;;5.00;91.26;98920.18;239551;1196;23123;-76
2021/04/18 01:49:25;;;;;;;32.70;16.35;;;;;;;4.96;90.88;98913.77;239495;1195;23166;-75
2021/04/18 01:54:28;;;;;;;39.77;20.77;;;;;;;4.91;91.24;98925.13;239679;1199;26272;-76
2021/04/18 01:59:31;;;;;;;49.00;22.00;;;;;;;4.92;90.88;98918.75;239266;1199;23122;-75
2021/04/18 02:05:13;;;;;;;46.45;19.80;;;;;;;4.95;91.14;98915.63;239374;1196;23169;-75
2021/04/18 02:10:17;;;;;;;48.60;20.20;;;;;;;4.97;91.16;98910.86;239506;1196;23827;-75
2021/04/18 02:15:22;;;;;;;41.03;20.47;;;;;;;5.04;91.27;98917.84;239257;1199;27001;-75
2021/04/18 02:20:25;;;;;;;35.70;18.17;;;;;;;5.03;91.26;98909.05;239548;1196;23125;-75
2021/04/18 02:25:29;;;;;;;47.60;22.13;;;;;;;5.04;91.17;98904.57;239539;1199;23130;-75
2021/04/18 02:30:32;;;;;;;49.57;20.60;;;;;;;5.06;91.05;98902.45;239543;1196;23518;-76
2021/04/18 02:35:35;;;;;;;44.07;20.90;;;;;;;5.05;91.36;98908.80;239727;1199;23106;-75
2021/04/18 02:40:39;;;;;;;39.87;19.63;;;;;;;5.06;91.09;98900.59;239544;1195;23262;-75
2021/04/18 02:45:42;;;;;;;42.80;19.60;;;;;;;5.04;90.89;98904.57;239541;1199;23112;-75
2021/04/18 02:50:46;;;;;;;43.95;20.20;;;;;;;5.01;90.68;98905.86;239302;1199;23112;-76
2021/04/18 02:55:48;;;;;;;46.95;20.00;;;;;;;5.04;91.10;98891.30;239602;1199;23147;-75
2021/04/18 03:01:05;;;;;;;43.20;20.65;;;;;;;5.11;91.11;98894.55;239262;1196;23099;-75
2021/04/18 03:06:08;;;;;;;45.10;20.43;;;;;;;5.14;91.26;98886.08;239561;1196;23108;-75
2021/04/18 03:11:12;;;;;;;36.95;18.80;;;;;;;5.12;91.06;98888.99;239317;1199;23142;-75
2021/04/18 03:16:16;;;;;;;49.50;21.40;;;;;;;5.11;90.83;98884.72;239646;1196;23094;-75
2021/04/18 03:21:19;;;;;;;46.70;21.47;;;;;;;5.11;91.02;98878.62;239303;1196;23117;-75
2021/04/18 03:26:22;;;;;;;45.90;21.10;;;;;;;5.11;90.64;98876.75;239525;1199;23121;-75
2021/04/18 03:31:27;;;;;;;37.20;19.40;;;;;;;5.11;90.77;98875.97;239443;1196;26246;-75
2021/04/18 03:36:37;;;;;;;49.68;20.05;;;;;;;5.00;90.51;98882.22;239379;1196;23112;-76
2021/04/18 03:41:47;;;;;;;45.10;19.57;;;;;;;5.03;90.91;98879.06;239622;1196;23163;-75
2021/04/18 03:46:51;;;;;;;48.03;20.47;;;;;;;5.06;91.01;98876.69;239593;1196;23121;-75
2021/04/18 03:52:04;;;;;;;43.20;20.40;;;;;;;5.10;91.16;98877.01;239534;1194;23119;-75
2021/04/18 03:57:07;;;;;;;37.50;18.05;;;;;;;5.13;91.58;98871.19;239236;1196;23251;-75
2021/04/18 04:02:11;;;;;;;47.20;19.80;;;;;;;5.11;90.83;98881.27;239409;1199;23115;-75
2021/04/18 04:07:18;;;;;;;44.55;17.95;;;;;;;5.11;90.74;98883.93;239694;1196;23426;-76
2021/04/18 04:12:24;;;;;;;41.70;18.40;;;;;;;5.14;91.12;98878.91;239617;1196;23251;-74
2021/04/18 04:17:28;;;;;;;36.35;17.85;;;;;;;5.20;91.55;98877.10;239651;1196;27173;-76
2021/04/18 04:22:52;;;;;;;35.75;17.10;;;;;;;5.22;91.13;98872.36;239575;1196;23131;-75
2021/04/18 04:27:56;;;;;;;47.20;19.03;;;;;;;5.18;91.11;98868.59;239742;1196;23115;-75
2021/04/18 04:32:59;;;;;;;41.27;17.97;;;;;;;5.20;90.89;98866.48;239315;1196;23115;-76
2021/04/18 04:38:03;;;;;;;47.03;19.20;;;;;;;5.28;91.41;98874.00;239633;1196;23273;-75
2021/04/18 04:43:06;;;;;;;36.00;18.17;;;;;;;5.25;90.53;98879.82;239792;1196;23159;-74
2021/04/18 04:48:08;;;;;;;37.10;17.90;;;;;;;5.23;91.07;98875.80;239437;1199;23108;-75
2021/04/18 04:53:11;;;;;;;42.17;19.63;;;;;;;5.25;91.25;98876.38;239720;1196;23141;-76
2021/04/18 04:58:15;;;;;;;40.30;18.60;;;;;;;5.24;90.74;98875.55;239641;1195;23253;-76
2021/04/18 05:03:18;;;;;;;41.60;18.63;;;;;;;5.24;90.56;98872.90;239346;1196;23266;-75
2021/04/18 05:08:22;;;;;;;39.87;18.33;;;;;;;5.23;90.36;98876.63;239236;1196;23120;-75
2021/04/18 05:13:25;;;;;;;28.67;15.30;;;;;;;5.25;90.65;98879.03;239409;1196;23093;-75
2021/04/18 05:18:28;;;;;;;40.30;18.43;;;;;;;5.26;90.86;98876.12;239498;1196;23112;-75
2021/04/18 05:23:31;;;;;;;38.33;18.57;;;;;;;5.30;90.53;98884.38;239567;1196;23376;-75
2021/04/18 05:28:35;;;;;;;41.00;19.05;;;;;;;5.34;90.53;98882.03;239722;1197;23237;-76
2021/04/18 05:33:38;;;;;;;40.00;20.60;;;;;;;5.37;90.64;98890.28;239813;1195;23115;-75
2021/04/18 05:38:41;;;;;;;41.50;20.47;;;;;;;5.39;90.70;98895.37;239515;1196;23117;-75
2021/04/18 05:43:46;;;;;;;42.47;21.30;;;;;;;5.37;90.36;98902.77;239264;1196;23161;-75
2021/04/18 05:48:50;;;;;;;43.10;20.87;;;;;;;5.37;90.79;98892.15;239428;1196;23315;-75
2021/04/18 05:53:54;;;;;;;44.63;22.23;;;;;;;5.39;90.71;98900.69;239172;1196;23282;-75
2021/04/18 05:58:57;;;;;;;44.00;21.30;;;;;;;5.42;90.47;98895.66;239175;1196;23457;-75
2021/04/18 06:03:59;;;;;;;35.10;19.00;;;;;;;5.49;90.87;98904.22;239473;1196;23139;-76
2021/04/18 06:09:03;;;;;;;42.60;20.73;;;;;;;5.55;90.73;98893.65;239593;1196;23670;-75
2021/04/18 06:14:06;;;;;;;41.75;19.60;;;;;;;5.61;90.76;98900.59;239714;1196;23198;-75
2021/04/18 06:19:09;;;;;;;37.05;18.80;;;;;;;5.66;90.08;98901.44;239626;1195;23107;-76
2021/04/18 06:24:11;;;;;;;33.90;16.75;;;;;;;5.79;90.78;98905.56;239348;1196;23106;-76
2021/04/18 06:29:14;;;;;;;33.80;17.73;;;;;;;5.87;90.05;98908.80;239319;1199;23195;-76
2021/04/18 06:34:22;;;;;;;36.03;18.73;;;;;;;5.92;90.39;98917.63;239443;1199;23539;-76
2021/04/18 06:39:25;;;;;;;35.85;19.50;;;;;;;5.99;90.16;98914.78;239589;1196;23316;-75
2021/04/18 06:44:32;;;;;;;42.80;21.33;;;;;;;6.03;89.66;98915.06;239811;1196;23096;-76
2021/04/18 06:49:39;;;;;;;37.07;18.23;;;;;;;6.12;89.75;98914.33;239584;1196;23358;-75
2021/04/18 06:54:42;;;;;;;43.33;20.47;;;;;;;6.26;90.09;98912.03;239664;1195;23176;-76
2021/04/18 06:59:44;;;;;;;33.85;17.15;;;;;;;6.44;89.50;98916.14;239864;1196;23259;-77
2021/04/18 07:05:21;;;;;;;35.27;20.27;;;;;;;6.55;89.45;98916.19;239719;1199;23560;-76
2021/04/18 07:10:31;;;;;;;39.30;19.07;;;;;;;6.55;88.89;98918.84;239709;1199;23140;-76
2021/04/18 07:15:38;;;;;;;30.95;16.33;;;;;;;6.66;88.96;98917.88;239667;1197;23200;-75
2021/04/18 07:20:54;;;;;;;29.15;15.75;;;;;;;6.81;88.84;98911.80;239366;1196;23179;-75
2021/04/18 07:25:58;;;;;;;30.13;16.30;;;;;;;6.88;88.35;98923.00;239597;1196;27807;-75
2021/04/18 07:31:04;;;;;;;30.20;16.90;;;;;;;7.06;88.98;98920.95;239375;1196;23132;-75
2021/04/18 07:36:19;;;;;;;27.93;16.67;;;;;;;7.37;88.69;98919.16;239203;1196;23111;-76
2021/04/18 07:41:23;;;;;;;29.80;16.13;;;;;;;7.67;88.26;98921.08;239834;1196;23361;-76
2021/04/18 07:46:26;;;;;;;23.05;13.40;;;;;;;8.07;87.62;98915.22;239460;1196;23111;-76
2021/04/18 07:51:29;;;;;;;18.47;10.13;;;;;;;8.23;86.77;98922.16;239325;1196;25975;-76
2021/04/18 07:56:32;;;;;;;13.97;9.40;;;;;;;8.20;85.65;98923.48;240157;1195;23125;-76
2021/04/18 08:01:35;;;;;;;18.60;10.93;;;;;;;8.08;85.57;98924.84;239837;1196;23351;-76
2021/04/18 08:06:43;;;;;;;17.40;11.90;;;;;;;7.94;85.21;98916.56;239704;1194;23138;-76
2021/04/18 08:12:08;;;;;;;21.05;13.15;;;;;;;7.91;85.21;98925.90;239868;1195;23118;-76
2021/04/18 08:17:11;;;;;;;19.00;11.40;;;;;;;8.10;85.53;98918.17;240268;1196;23173;-76
2021/04/18 08:22:15;;;;;;;16.90;12.27;;;;;;;8.12;84.83;98921.35;240060;1195;23074;-76
2021/04/18 08:27:18;;;;;;;20.53;13.70;;;;;;;8.09;84.89;98927.23;239615;1196;23108;-75
2021/04/18 08:32:41;;;;;;;21.53;13.33;;;;;;;7.97;84.08;98919.48;240011;1196;23226;-76
2021/04/18 08:37:44;;;;;;;18.60;11.73;;;;;;;7.90;84.25;98924.30;239885;1199;23107;-76
2021/04/18 08:42:47;;;;;;;16.67;10.93;;;;;;;7.88;84.40;98916.56;240095;1194;24575;-75
2021/04/18 08:47:49;;;;;;;15.50;11.00;;;;;;;7.95;84.82;98918.97;239858;1195;23244;-76
2021/04/18 08:53:02;;;;;;;13.53;9.00;;;;;;;8.20;84.21;98914.69;239842;1196;23102;-76
2021/04/18 08:58:05;;;;;;;10.70;7.45;;;;;;;8.48;84.27;98913.33;239828;1196;23093;-76
2021/04/18 09:03:14;;;;;;;9.53;6.53;;;;;;;8.68;83.23;98909.78;239895;1196;23136;-76
2021/04/18 09:08:19;;;;;;;10.65;7.43;;;;;;;8.96;83.28;98915.56;239711;1196;23244;-76
2021/04/18 09:13:22;;;;;;;11.95;8.20;;;;;;;9.20;82.58;98918.38;239442;1196;23164;-76
2021/04/18 09:18:25;;;;;;;10.60;7.20;;;;;;;9.33;81.71;98916.18;239554;1196;23105;-76
2021/04/18 09:23:28;;;;;;;12.25;8.40;;;;;;;9.37;81.06;98912.70;239689;1196;23134;-76
2021/04/18 09:28:30;;;;;;;9.70;7.30;;;;;;;9.37;80.12;98914.55;239671;1199;23112;-76
2021/04/18 09:33:33;;;;;;;7.97;5.67;;;;;;;9.44;80.14;98916.92;239637;1196;23122;-76
2021/04/18 09:38:37;;;;;;;11.57;7.03;;;;;;;9.56;79.77;98909.36;239805;1196;23065;-77
2021/04/18 09:43:39;;;;;;;9.97;7.47;;;;;;;9.72;80.57;98913.53;240081;1195;23118;-76
2021/04/18 09:48:56;;;;;;;8.97;6.77;;;;;;;9.90;79.62;98919.27;239955;1196;23207;-76
2021/04/18 09:54:04;;;;;;;12.30;7.80;;;;;;;10.19;80.37;98915.83;239828;1196;23128;-76
2021/04/18 09:59:16;;;;;;;12.30;8.30;;;;;;;10.72;80.30;98917.73;239587;1196;23216;-76
2021/04/18 10:04:25;;;;;;;10.40;7.80;;;;;;;10.89;78.66;98914.58;239343;1196;23294;-77
2021/04/18 10:09:52;;;;;;;11.05;8.75;;;;;;;11.06;77.62;98917.56;239452;1196;23114;-76
2021/04/18 10:15:06;;;;;;;11.90;8.85;;;;;;;11.22;77.38;98920.05;239999;1196;23159;-76
2021/04/18 10:20:10;;;;;;;11.10;8.10;;;;;;;11.36;77.71;98920.13;239902;1195;23126;-77
2021/04/18 10:25:13;;;;;;;15.43;10.70;;;;;;;11.23;75.90;98922.44;239877;1196;23108;-77
2021/04/18 10:30:17;;;;;;;13.90;9.83;;;;;;;10.82;74.77;98922.95;240319;1196;23092;-76
2021/04/18 10:35:20;;;;;;;11.33;8.73;;;;;;;10.57;74.96;98916.80;240298;1196;23122;-77
2021/04/18 10:40:24;;;;;;;12.20;7.45;;;;;;;10.55;75.11;98920.86;239849;1196;23136;-77
2021/04/18 10:45:27;;;;;;;10.80;7.75;;;;;;;10.74;75.26;98926.27;239903;1196;23247;-76
2021/04/18 10:50:30;;;;;;;8.90;6.75;;;;;;;10.99;75.00;98916.33;239407;1196;23214;-76
2021/04/18 10:55:33;;;;;;;11.00;7.15;;;;;;;11.17;74.12;98917.45;239701;1195;23115;-77
2021/04/18 11:00:36;;;;;;;9.55;7.30;;;;;;;11.59;74.78;98913.89;239921;1199;23117;-78
2021/04/18 11:05:42;;;;;;;10.50;7.75;;;;;;;12.29;73.11;98911.45;239279;1199;23125;-76
2021/04/18 11:10:45;;;;;;;11.25;7.95;;;;;;;12.56;73.44;98901.83;239685;1196;23115;-76
2021/04/18 11:15:48;;;;;;;11.15;8.05;;;;;;;12.67;72.85;98900.53;239887;1198;23638;-77
2021/04/18 11:20:52;;;;;;;10.50;7.50;;;;;;;12.80;71.13;98896.23;239756;1196;23448;-77
2021/04/18 11:25:55;;;;;;;10.85;7.15;;;;;;;12.70;70.23;98899.14;239449;1196;23559;-76
2021/04/18 11:30:58;;;;;;;13.45;9.90;;;;;;;12.40;70.06;98893.27;239941;1196;23127;-77
2021/04/18 11:36:02;;;;;;;9.90;7.50;;;;;;;12.18;69.69;98896.61;239367;1195;26301;-77
2021/04/18 11:41:05;;;;;;;9.93;7.63;;;;;;;11.97;68.96;98902.33;239866;1196;26021;-79
2021/04/18 11:46:07;;;;;;;10.35;7.70;;;;;;;11.88;69.25;98893.31;239837;1196;23134;-78
2021/04/18 11:51:10;;;;;;;8.75;6.95;;;;;;;11.85;69.01;98897.41;240158;1196;23155;-77
2021/04/18 11:56:13;;;;;;;9.65;7.00;;;;;;;11.76;68.45;98891.09;239911;1196;23250;-76
2021/04/18 12:01:16;;;;;;;10.15;7.40;;;;;;;11.86;68.96;98890.92;239858;1196;23121;-76
2021/04/18 12:06:19;;;;;;;10.80;8.35;;;;;;;11.96;68.47;98900.73;239340;1196;23106;-76
2021/04/18 12:11:22;;;;;;;9.90;7.50;;;;;;;12.11;68.87;98894.31;239657;1196;26137;-76
2021/04/18 12:16:24;;;;;;;9.85;7.05;;;;;;;12.22;67.86;98893.03;239798;1196;23111;-77
2021/04/18 12:21:28;;;;;;;12.40;9.60;;;;;;;12.22;67.85;98889.56;240086;1197;23283;-78
2021/04/18 12:26:31;;;;;;;12.50;9.20;;;;;;;12.30;67.99;98884.30;239441;1196;23125;-74
2021/04/18 12:31:36;;;;;;;10.80;8.70;;;;;;;12.53;68.30;98884.41;239698;1196;23135;-78
2021/04/18 12:36:40;;;;;;;8.70;7.00;;;;;;;12.63;66.43;98883.41;239930;1195;26000;-77
2021/04/18 12:41:43;;;;;;;10.35;7.85;;;;;;;12.64;66.71;98885.01;239779;1196;23266;-77
2021/04/18 12:46:46;;;;;;;9.30;7.30;;;;;;;12.71;66.06;98882.72;240100;1195;23257;-77
2021/04/18 12:51:50;;;;;;;11.05;7.35;;;;;;;12.61;64.92;98888.30;239533;1199;23142;-76
2021/04/18 12:56:53;;;;;;;9.70;7.65;;;;;;;12.78;65.01;98883.10;239364;1199;23118;-77
2021/04/18 13:01:58;;;;;;;11.60;8.70;;;;;;;12.88;66.07;98881.31;239618;1196;23333;-77
2021/04/18 13:07:01;;;;;;;10.43;8.23;;;;;;;12.96;65.22;98878.70;239554;1199;23112;-77
2021/04/18 13:12:06;;;;;;;10.75;8.00;;;;;;;12.88;64.85;98873.25;239689;1196;24614;-77
2021/04/18 13:17:08;;;;;;;11.45;8.85;;;;;;;12.76;64.55;98874.55;239753;1199;23101;-78
2021/04/18 13:22:11;;;;;;;11.55;8.35;;;;;;;12.55;64.46;98870.67;239897;1196;23122;-77
2021/04/18 13:27:15;;;;;;;11.00;8.67;;;;;;;12.34;64.64;98868.39;239672;1196;23167;-76
2021/04/18 13:32:18;;;;;;;10.30;8.10;;;;;;;12.32;65.04;98870.56;239693;1196;26262;-78
2021/04/18 13:37:21;;;;;;;8.57;7.03;;;;;;;12.62;65.00;98863.81;239729;1196;23121;-77
2021/04/18 13:42:23;;;;;;;11.43;8.63;;;;;;;12.92;64.73;98869.64;239614;1196;23237;-77
2021/04/18 13:47:26;;;;;;;10.43;8.20;;;;;;;13.17;64.29;98865.61;239415;1196;23214;-77
2021/04/18 13:52:30;;;;;;;11.83;7.93;;;;;;;13.30;63.19;98860.50;239661;1196;23134;-77
2021/04/18 13:57:33;;;;;;;9.75;7.90;;;;;;;13.30;62.33;98865.88;239639;1196;23201;-77
2021/04/18 14:02:36;;;;;;;11.65;8.20;;;;;;;13.11;61.85;98868.70;239823;1196;23115;-77
2021/04/18 14:07:40;;;;;;;11.35;8.80;;;;;;;12.99;61.89;98861.96;239648;1196;23167;-77
2021/04/18 14:12:43;;;;;;;9.33;7.97;;;;;;;13.04;61.92;98862.95;239601;1196;23142;-76
2021/04/18 14:17:46;;;;;;;11.50;8.80;;;;;;;12.93;61.27;98867.77;239769;1196;24575;-77
2021/04/18 14:22:49;;;;;;;12.50;9.40;;;;;;;12.52;61.00;98858.65;239931;1196;23133;-78
2021/04/18 14:27:52;;;;;;;14.05;9.40;;;;;;;12.32;61.89;98855.27;239940;1196;23193;-77
2021/04/18 14:32:56;;;;;;;10.93;8.90;;;;;;;12.18;62.30;98861.70;239876;1199;23115;-78
2021/04/18 14:38:00;;;;;;;12.40;10.00;;;;;;;12.06;62.79;98860.30;239766;1196;23116;-77
2021/04/18 14:43:03;;;;;;;12.03;9.27;;;;;;;11.87;61.76;98864.90;239558;1196;24902;-77
2021/04/18 14:48:06;;;;;;;14.30;10.50;;;;;;;11.53;62.28;98868.64;239468;1196;23130;-77
2021/04/18 14:53:10;;;;;;;16.10;11.50;;;;;;;11.22;63.54;98863.73;239533;1196;23108;-76
2021/04/18 14:58:13;;;;;;;15.45;11.30;;;;;;;11.04;63.66;98865.31;239590;1196;23206;-77
2021/04/18 15:03:16;;;;;;;15.17;10.80;;;;;;;10.82;63.93;98866.69;239563;1196;23112;-78
2021/04/18 15:08:19;;;;;;;15.07;11.13;;;;;;;10.71;64.45;98870.58;239837;1196;23107;-77
2021/04/18 15:13:22;;;;;;;16.80;11.30;;;;;;;10.57;64.80;98865.90;239754;1199;23279;-77
2021/04/18 15:18:26;;;;;;;14.80;11.00;;;;;;;10.44;64.89;98879.99;239441;1195;23266;-77
2021/04/18 15:23:29;;;;;;;16.07;10.37;;;;;;;10.28;65.29;98874.77;239689;1196;23214;-77
2021/04/18 15:28:32;;;;;;;43.63;30.53;;;;;;;10.08;65.72;98875.75;239454;1196;23208;-77
2021/04/18 15:33:35;;;;;;;16.05;11.25;;;;;;;9.97;66.08;98879.60;239653;1196;23237;-77
2021/04/18 15:38:39;;;;;;;15.93;11.17;;;;;;;9.89;65.93;98880.20;239856;1196;23113;-77
2021/04/18 15:43:42;;;;;;;16.50;11.83;;;;;;;9.79;66.49;98885.66;240142;1196;23118;-77
2021/04/18 15:48:47;;;;;;;19.90;12.70;;;;;;;9.67;66.75;98884.14;239618;1199;25522;-77
2021/04/18 15:53:49;;;;;;;20.70;13.20;;;;;;;9.63;67.10;98890.33;239579;1196;25087;-77
2021/04/18 15:58:53;;;;;;;22.17;14.30;;;;;;;9.58;67.17;98886.62;239857;1196;23262;-78
2021/04/18 16:03:57;;;;;;;19.13;13.63;;;;;;;9.52;67.17;98886.92;239444;1196;23183;-77
2021/04/18 16:08:59;;;;;;;20.33;14.73;;;;;;;9.45;67.18;98886.45;239696;1196;23111;-76
2021/04/18 16:14:04;;;;;;;20.73;13.47;;;;;;;9.35;67.51;98888.09;239890;1196;23254;-77
2021/04/18 16:19:08;;;;;;;23.55;13.95;;;;;;;9.34;67.93;98888.38;239585;1196;23114;-77
2021/04/18 16:24:10;;;;;;;21.60;14.90;;;;;;;9.31;68.19;98886.27;239953;1196;23459;-77
2021/04/18 16:29:14;;;;;;;22.90;15.65;;;;;;;9.29;68.20;98894.56;239756;1196;23116;-77
2021/04/18 16:34:17;;;;;;;24.30;14.80;;;;;;;9.24;68.34;98894.58;239862;1196;23156;-77
2021/04/18 16:39:20;;;;;;;21.77;13.87;;;;;;;9.18;68.41;98896.48;239910;1196;23100;-78
2021/04/18 16:44:22;;;;;;;25.05;14.10;;;;;;;9.14;68.85;98908.02;239636;1194;23100;-76
2021/04/18 16:49:26;;;;;;;22.67;14.60;;;;;;;9.12;69.01;98897.60;239938;1196;23207;-77
2021/04/18 16:54:28;;;;;;;25.00;14.57;;;;;;;9.06;68.94;98901.36;239622;1196;23135;-77
2021/04/18 16:59:31;;;;;;;22.35;14.70;;;;;;;9.00;68.91;98908.60;239388;1195;23190;-76
2021/04/18 17:04:34;;;;;;;20.60;11.90;;;;;;;8.93;68.93;98909.98;239672;1196;23128;-76
2021/04/18 17:09:37;;;;;;;18.60;12.93;;;;;;;8.85;69.15;98917.47;239353;1196;23119;-77
2021/04/18 17:14:41;;;;;;;20.37;14.50;;;;;;;8.84;69.18;98920.42;239812;1196;23240;-78
2021/04/18 17:19:43;;;;;;;24.17;15.13;;;;;;;8.78;69.50;98926.86;239709;1196;23273;-77
2021/04/18 17:24:47;;;;;;;23.15;15.20;;;;;;;8.68;70.04;98931.16;239454;1196;23106;-77
2021/04/18 17:29:49;;;;;;;24.20;14.57;;;;;;;8.56;70.05;98947.48;239673;1196;23585;-76
2021/04/18 17:34:53;;;;;;;22.70;14.87;;;;;;;8.46;69.55;98941.36;239821;1195;23129;-76
2021/04/18 17:39:55;;;;;;;24.67;15.93;;;;;;;8.26;70.40;98926.16;239709;1196;23141;-77
2021/04/18 17:44:58;;;;;;;23.23;15.77;;;;;;;8.26;70.30;98945.63;239548;1199;23121;-76
2021/04/18 17:50:02;;;;;;;26.95;16.80;;;;;;;8.15;70.46;98958.17;239877;1196;23163;-76
2021/04/18 17:55:06;;;;;;;25.80;16.90;;;;;;;8.07;71.11;98958.70;240256;1194;23123;-77
2021/04/18 18:00:13;;;;;;;28.70;16.17;;;;;;;8.04;71.23;98973.40;239763;1196;23189;-76
2021/04/18 18:05:18;;;;;;;25.00;15.53;;;;;;;8.04;71.76;98972.58;239573;1199;23112;-76
2021/04/18 18:10:22;;;;;;;33.23;19.87;;;;;;;8.04;71.81;98969.91;240065;1199;23125;-77
2021/04/18 18:15:25;;;;;;;46.10;21.25;;;;;;;8.04;72.29;98975.25;239803;1196;23128;-76
2021/04/18 18:20:28;;;;;;;33.73;20.17;;;;;;;8.00;72.14;98985.67;239695;1196;23362;-77
2021/04/18 18:25:32;;;;;;;34.40;19.55;;;;;;;7.97;71.55;98982.72;239599;1196;23095;-77
2021/04/18 18:30:36;;;;;;;27.20;17.80;;;;;;;7.99;71.75;98984.06;239991;1194;27062;-77
2021/04/18 18:35:39;;;;;;;29.23;17.53;;;;;;;8.01;71.28;98989.92;240081;1196;23122;-77
2021/04/18 18:40:41;;;;;;;38.53;22.10;;;;;;;7.99;71.98;98986.73;239730;1199;23111;-76
2021/04/18 18:45:45;;;;;;;41.83;23.83;;;;;;;7.92;71.87;98988.86;239684;1196;23115;-77
2021/04/18 18:50:47;;;;;;;38.17;21.20;;;;;;;7.84;72.22;98986.71;239574;1196;23119;-77
2021/04/18 18:55:51;;;;;;;35.97;21.33;;;;;;;7.82;72.37;98980.83;239531;1196;23125;-77
2021/04/18 19:00:53;;;;;;;41.00;23.05;;;;;;;7.84;73.35;98981.38;239432;1196;23122;-77
2021/04/18 19:05:57;;;;;;;38.50;23.60;;;;;;;7.87;72.70;98983.51;239605;1196;23103;-77
2021/04/18 19:11:00;;;;;;;37.20;23.60;;;;;;;7.91;73.09;98981.91;239710;1196;23267;-77
2021/04/18 19:16:04;;;;;;;39.85;23.20;;;;;;;7.89;73.11;98968.06;239453;1198;23101;-76
2021/04/18 19:21:07;;;;;;;40.07;22.83;;;;;;;7.90;72.54;98974.19;239697;1198;25996;-77
2021/04/18 19:26:10;;;;;;;52.40;28.60;;;;;;;7.92;73.32;98980.86;239766;1199;23102;-77
2021/04/18 19:31:14;;;;;;;48.20;28.03;;;;;;;7.94;73.14;98980.59;239604;1196;23120;-77
2021/04/18 19:36:17;;;;;;;43.40;25.00;;;;;;;7.92;72.59;98983.52;239659;1196;23144;-78
2021/04/18 19:41:20;;;;;;;46.70;25.35;;;;;;;7.90;73.47;98984.85;239557;1196;23265;-77
2021/04/18 19:46:23;;;;;;;45.23;25.73;;;;;;;7.85;72.82;98981.11;239607;1196;26121;-78
2021/04/18 19:51:27;;;;;;;44.80;26.70;;;;;;;7.83;72.60;98982.44;239727;1196;23100;-78
2021/04/18 19:56:30;;;;;;;79.45;38.55;;;;;;;7.84;73.12;98978.71;239723;1195;23190;-77
2021/04/18 20:01:33;;;;;;;70.35;34.50;;;;;;;7.86;73.27;98987.23;239680;1196;23128;-77
2021/04/18 20:06:36;;;;;;;65.00;33.73;;;;;;;7.83;72.88;98980.56;239792;1196;25969;-77
2021/04/18 20:11:39;;;;;;;67.30;33.57;;;;;;;7.79;73.23;98982.18;239911;1196;23141;-76
2021/04/18 20:16:46;;;;;;;79.55;39.00;;;;;;;7.79;73.53;98984.85;239601;1196;23123;-76
2021/04/18 20:21:50;;;;;;;67.70;34.05;;;;;;;7.81;72.81;98984.58;239398;1196;24754;-77
2021/04/18 20:26:55;;;;;;;71.57;33.27;;;;;;;7.77;73.17;98978.17;239641;1196;23151;-79
2021/04/18 20:31:58;;;;;;;65.83;32.50;;;;;;;7.76;73.38;98981.89;239439;1196;23132;-78
2021/04/18 20:37:06;;;;;;;64.40;32.80;;;;;;;7.76;73.02;98973.89;239816;1195;23111;-77
2021/04/18 20:42:08;;;;;;;69.35;33.40;;;;;;;7.77;73.02;98973.63;239748;1196;23331;-77
2021/04/18 20:47:12;;;;;;;62.17;32.50;;;;;;;7.78;73.20;98964.57;239638;1196;23189;-78
2021/04/18 20:52:15;;;;;;;59.77;32.50;;;;;;;7.76;73.36;98964.02;239930;1196;23234;-77
2021/04/18 20:57:19;;;;;;;50.00;27.03;;;;;;;7.72;72.80;98965.61;239843;1196;23117;-77
2021/04/18 21:02:24;;;;;;;48.30;27.33;;;;;;;7.68;73.13;98962.69;239649;1196;23119;-78
2021/04/18 21:07:27;;;;;;;58.20;30.10;;;;;;;7.68;73.58;98962.69;239633;1199;23134;-77
2021/04/18 21:12:31;;;;;;;58.50;29.70;;;;;;;7.70;73.66;98963.21;239450;1196;23114;-78
2021/04/18 21:17:35;;;;;;;107.90;42.65;;;;;;;7.70;73.87;98954.42;239806;1196;23336;-78
2021/04/18 21:22:39;;;;;;;109.27;42.20;;;;;;;7.66;73.50;98954.14;239758;1198;23109;-78
2021/04/18 21:27:44;;;;;;;90.60;36.60;;;;;;;7.60;73.44;98960.54;239908;1199;23092;-78
2021/04/18 21:32:47;;;;;;;80.35;34.50;;;;;;;7.55;73.48;98960.52;239814;1196;23120;-77
2021/04/18 21:37:50;;;;;;;82.23;36.10;;;;;;;7.56;74.04;98956.80;240043;1196;23188;-77
2021/04/18 21:42:53;;;;;;;60.15;30.20;;;;;;;7.58;73.86;98961.86;239714;1199;23135;-77
2021/04/18 21:47:56;;;;;;;52.07;28.13;;;;;;;7.59;73.70;98956.27;239362;1195;23118;-78
2021/04/18 21:53:00;;;;;;;44.50;24.80;;;;;;;7.57;74.12;98949.59;239394;1199;23173;-76
2021/04/18 21:58:03;;;;;;;46.60;24.17;;;;;;;7.52;73.52;98953.84;239661;1195;23109;-77
2021/04/18 22:03:07;;;;;;;46.17;24.27;;;;;;;7.52;74.10;98948.52;239774;1196;23135;-77
2021/04/18 22:08:11;;;;;;;45.75;23.40;;;;;;;7.50;74.30;98950.66;239796;1196;23074;-76
2021/04/18 22:13:13;;;;;;;42.57;23.67;;;;;;;7.49;73.95;98943.72;239545;1195;23279;-78
2021/04/18 22:18:16;;;;;;;53.07;27.27;;;;;;;7.45;73.73;98955.17;239266;1196;23109;-77
2021/04/18 22:23:19;;;;;;;49.70;26.30;;;;;;;7.38;73.88;98950.09;239565;1196;23279;-77
2021/04/18 22:28:22;;;;;;;42.07;22.70;;;;;;;7.34;74.34;98933.02;239752;1196;23125;-77
2021/04/18 22:33:26;;;;;;;39.77;22.37;;;;;;;7.32;74.23;98946.61;239766;1199;23115;-77
2021/04/18 22:38:29;;;;;;;36.20;21.30;;;;;;;7.29;74.69;98938.33;239411;1199;23141;-77
2021/04/18 22:43:32;;;;;;;37.30;22.23;;;;;;;7.18;74.94;98929.52;239484;1196;23111;-76
2021/04/18 22:48:34;;;;;;;35.17;20.60;;;;;;;7.09;75.13;98934.53;239400;1196;23263;-78
2021/04/18 22:53:38;;;;;;;33.75;18.60;;;;;;;6.99;74.79;98932.63;239785;1196;23136;-77
2021/04/18 22:58:42;;;;;;;31.40;18.87;;;;;;;6.92;75.68;98918.77;239650;1195;23102;-78
2021/04/18 23:03:44;;;;;;;29.80;18.25;;;;;;;6.85;75.71;98926.20;239594;1196;23122;-77
2021/04/18 23:08:48;;;;;;;30.70;17.80;;;;;;;6.76;75.69;98919.78;239657;1196;23160;-77
2021/04/18 23:13:51;;;;;;;33.77;20.03;;;;;;;6.66;75.36;98926.64;239649;1195;23125;-77
2021/04/18 23:18:55;;;;;;;32.50;18.77;;;;;;;6.56;76.24;98921.28;239436;1196;23109;-78